sensor_id;sensor_type;location;lat;lon;timestamp;P1;durP1;ratioP1;P2;durP2;ratioP2
11203;SDS011;5659;49.408;11.116;2024-01-30T00:01:52;21.23;;;13.13;;
11203;SDS011;5659;49.408;11.116;2024-01-30T00:04:18;21.13;;;12.60;;
11203;SDS011;5659;49.408;11.116;2024-01-30T00:06:44;20.57;;;12.27;;
11203;SDS011;5659;49.408;11.116;2024-01-30T00:09:10;23.37;;;14.27;;
11203;SDS011;5659;49.408;11.116;2024-01-30T00:11:37;27.20;;;14.93;;
11203;SDS011;5659;49.408;11.116;2024-01-30T00:14:03;29.87;;;15.57;;
11203;SDS011;5659;49.408;11.116;2024-01-30T00:16:29;28.70;;;16.93;;
11203;SDS011;5659;49.408;11.116;2024-01-30T00:18:55;29.17;;;15.77;;
11203;SDS011;5659;49.408;11.116;2024-01-30T00:21:21;27.40;;;15.87;;
11203;SDS011;5659;49.408;11.116;2024-01-30T00:23:47;26.87;;;14.93;;
11203;SDS011;5659;49.408;11.116;2024-01-30T00:26:14;26.37;;;14.10;;
11203;SDS011;5659;49.408;11.116;2024-01-30T00:28:40;22.77;;;12.63;;
11203;SDS011;5659;49.408;11.116;2024-01-30T00:31:06;25.50;;;13.17;;
11203;SDS011;5659;49.408;11.116;2024-01-30T00:33:32;20.63;;;12.67;;
11203;SDS011;5659;49.408;11.116;2024-01-30T00:35:58;25.17;;;12.60;;
11203;SDS011;5659;49.408;11.116;2024-01-30T00:38:24;20.20;;;12.03;;
11203;SDS011;5659;49.408;11.116;2024-01-30T00:40:50;18.83;;;12.27;;
11203;SDS011;5659;49.408;11.116;2024-01-30T00:43:16;19.07;;;12.33;;
11203;SDS011;5659;49.408;11.116;2024-01-30T00:45:45;19.63;;;11.93;;
11203;SDS011;5659;49.408;11.116;2024-01-30T00:48:11;18.33;;;12.57;;
11203;SDS011;5659;49.408;11.116;2024-01-30T00:50:37;19.87;;;12.00;;
11203;SDS011;5659;49.408;11.116;2024-01-30T00:53:03;20.77;;;11.87;;
11203;SDS011;5659;49.408;11.116;2024-01-30T00:55:29;19.17;;;10.70;;
11203;SDS011;5659;49.408;11.116;2024-01-30T00:57:55;18.37;;;10.00;;
11203;SDS011;5659;49.408;11.116;2024-01-30T01:00:21;16.20;;;9.77;;
11203;SDS011;5659;49.408;11.116;2024-01-30T01:02:53;18.97;;;9.97;;
11203;SDS011;5659;49.408;11.116;2024-01-30T01:05:20;13.50;;;9.13;;
11203;SDS011;5659;49.408;11.116;2024-01-30T01:07:46;16.97;;;9.37;;
11203;SDS011;5659;49.408;11.116;2024-01-30T01:10:13;16.47;;;9.50;;
11203;SDS011;5659;49.408;11.116;2024-01-30T01:12:39;16.73;;;9.47;;
11203;SDS011;5659;49.408;11.116;2024-01-30T01:15:05;16.03;;;9.37;;
11203;SDS011;5659;49.408;11.116;2024-01-30T01:17:34;15.60;;;9.50;;
11203;SDS011;5659;49.408;11.116;2024-01-30T01:20:00;18.40;;;8.97;;
11203;SDS011;5659;49.408;11.116;2024-01-30T01:22:26;18.20;;;9.83;;
11203;SDS011;5659;49.408;11.116;2024-01-30T01:24:52;15.23;;;9.77;;
11203;SDS011;5659;49.408;11.116;2024-01-30T01:27:18;18.47;;;9.57;;
11203;SDS011;5659;49.408;11.116;2024-01-30T01:29:44;14.97;;;8.40;;
11203;SDS011;5659;49.408;11.116;2024-01-30T01:32:10;14.87;;;8.83;;
11203;SDS011;5659;49.408;11.116;2024-01-30T01:34:36;14.47;;;8.77;;
11203;SDS011;5659;49.408;11.116;2024-01-30T01:37:02;11.57;;;8.07;;
11203;SDS011;5659;49.408;11.116;2024-01-30T01:39:28;15.37;;;7.50;;
11203;SDS011;5659;49.408;11.116;2024-01-30T01:41:54;13.53;;;8.30;;
11203;SDS011;5659;49.408;11.116;2024-01-30T01:44:20;16.70;;;8.50;;
11203;SDS011;5659;49.408;11.116;2024-01-30T01:46:46;16.13;;;8.20;;
11203;SDS011;5659;49.408;11.116;2024-01-30T01:49:13;15.67;;;7.73;;
11203;SDS011;5659;49.408;11.116;2024-01-30T01:51:39;9.90;;;6.73;;
11203;SDS011;5659;49.408;11.116;2024-01-30T01:54:06;12.87;;;6.97;;
11203;SDS011;5659;49.408;11.116;2024-01-30T01:56:33;12.43;;;7.77;;
11203;SDS011;5659;49.408;11.116;2024-01-30T01:58:59;11.27;;;6.80;;
11203;SDS011;5659;49.408;11.116;2024-01-30T02:01:26;12.60;;;7.30;;
11203;SDS011;5659;49.408;11.116;2024-01-30T02:03:53;11.03;;;6.33;;
11203;SDS011;5659;49.408;11.116;2024-01-30T02:06:19;12.10;;;7.30;;
11203;SDS011;5659;49.408;11.116;2024-01-30T02:08:45;10.97;;;6.60;;
11203;SDS011;5659;49.408;11.116;2024-01-30T02:11:11;13.07;;;7.60;;
11203;SDS011;5659;49.408;11.116;2024-01-30T02:13:38;12.23;;;6.57;;
11203;SDS011;5659;49.408;11.116;2024-01-30T02:16:04;13.97;;;6.67;;
11203;SDS011;5659;49.408;11.116;2024-01-30T02:18:30;11.67;;;6.43;;
11203;SDS011;5659;49.408;11.116;2024-01-30T02:20:56;14.83;;;5.93;;
11203;SDS011;5659;49.408;11.116;2024-01-30T02:23:26;11.57;;;6.50;;
11203;SDS011;5659;49.408;11.116;2024-01-30T02:25:52;14.97;;;7.10;;
11203;SDS011;5659;49.408;11.116;2024-01-30T02:28:19;9.90;;;6.77;;
11203;SDS011;5659;49.408;11.116;2024-01-30T02:30:46;10.07;;;6.63;;
11203;SDS011;5659;49.408;11.116;2024-01-30T02:33:12;10.63;;;5.67;;
11203;SDS011;5659;49.408;11.116;2024-01-30T02:35:38;13.27;;;6.80;;
11203;SDS011;5659;49.408;11.116;2024-01-30T02:38:04;9.37;;;6.10;;
11203;SDS011;5659;49.408;11.116;2024-01-30T02:40:31;11.13;;;6.73;;
11203;SDS011;5659;49.408;11.116;2024-01-30T02:42:58;11.50;;;6.80;;
11203;SDS011;5659;49.408;11.116;2024-01-30T02:45:24;9.17;;;6.10;;
11203;SDS011;5659;49.408;11.116;2024-01-30T02:47:50;11.93;;;7.23;;
11203;SDS011;5659;49.408;11.116;2024-01-30T02:50:16;8.90;;;6.30;;
11203;SDS011;5659;49.408;11.116;2024-01-30T02:52:42;11.17;;;5.77;;
11203;SDS011;5659;49.408;11.116;2024-01-30T02:55:11;10.90;;;6.90;;
11203;SDS011;5659;49.408;11.116;2024-01-30T02:57:38;11.20;;;7.33;;
11203;SDS011;5659;49.408;11.116;2024-01-30T03:00:04;14.93;;;6.97;;
11203;SDS011;5659;49.408;11.116;2024-01-30T03:02:31;8.67;;;6.10;;
11203;SDS011;5659;49.408;11.116;2024-01-30T03:04:57;10.03;;;7.03;;
11203;SDS011;5659;49.408;11.116;2024-01-30T03:07:23;9.73;;;6.27;;
11203;SDS011;5659;49.408;11.116;2024-01-30T03:09:49;13.03;;;6.90;;
11203;SDS011;5659;49.408;11.116;2024-01-30T03:12:15;10.20;;;6.43;;
11203;SDS011;5659;49.408;11.116;2024-01-30T03:14:41;10.10;;;6.10;;
11203;SDS011;5659;49.408;11.116;2024-01-30T03:17:07;11.57;;;6.87;;
11203;SDS011;5659;49.408;11.116;2024-01-30T03:19:33;11.70;;;6.57;;
11203;SDS011;5659;49.408;11.116;2024-01-30T03:21:59;12.93;;;6.53;;
11203;SDS011;5659;49.408;11.116;2024-01-30T03:24:25;13.00;;;6.80;;
11203;SDS011;5659;49.408;11.116;2024-01-30T03:26:51;12.10;;;6.97;;
11203;SDS011;5659;49.408;11.116;2024-01-30T03:29:17;9.40;;;6.83;;
11203;SDS011;5659;49.408;11.116;2024-01-30T03:31:43;10.50;;;6.60;;
11203;SDS011;5659;49.408;11.116;2024-01-30T03:34:09;12.27;;;7.07;;
11203;SDS011;5659;49.408;11.116;2024-01-30T03:36:35;12.20;;;6.97;;
11203;SDS011;5659;49.408;11.116;2024-01-30T03:39:01;13.70;;;7.83;;
11203;SDS011;5659;49.408;11.116;2024-01-30T03:41:28;13.87;;;7.53;;
11203;SDS011;5659;49.408;11.116;2024-01-30T03:43:54;14.63;;;7.53;;
11203;SDS011;5659;49.408;11.116;2024-01-30T03:46:20;11.93;;;7.83;;
11203;SDS011;5659;49.408;11.116;2024-01-30T03:48:46;13.90;;;7.80;;
11203;SDS011;5659;49.408;11.116;2024-01-30T03:51:12;11.97;;;7.77;;
11203;SDS011;5659;49.408;11.116;2024-01-30T03:53:40;12.00;;;7.90;;
11203;SDS011;5659;49.408;11.116;2024-01-30T03:56:06;15.20;;;8.53;;
11203;SDS011;5659;49.408;11.116;2024-01-30T03:58:32;10.30;;;7.27;;
11203;SDS011;5659;49.408;11.116;2024-01-30T04:00:58;11.57;;;7.80;;
11203;SDS011;5659;49.408;11.116;2024-01-30T04:03:24;13.10;;;8.33;;
11203;SDS011;5659;49.408;11.116;2024-01-30T04:05:53;15.30;;;7.83;;
11203;SDS011;5659;49.408;11.116;2024-01-30T04:08:19;11.93;;;7.77;;
11203;SDS011;5659;49.408;11.116;2024-01-30T04:10:46;13.93;;;8.37;;
11203;SDS011;5659;49.408;11.116;2024-01-30T04:13:12;13.30;;;8.77;;
11203;SDS011;5659;49.408;11.116;2024-01-30T04:15:38;14.40;;;8.50;;
11203;SDS011;5659;49.408;11.116;2024-01-30T04:18:04;13.47;;;7.97;;
11203;SDS011;5659;49.408;11.116;2024-01-30T04:20:31;14.63;;;7.77;;
11203;SDS011;5659;49.408;11.116;2024-01-30T04:22:57;15.70;;;8.13;;
11203;SDS011;5659;49.408;11.116;2024-01-30T04:25:23;14.87;;;8.00;;
11203;SDS011;5659;49.408;11.116;2024-01-30T04:27:49;14.43;;;8.30;;
11203;SDS011;5659;49.408;11.116;2024-01-30T04:30:15;13.00;;;9.03;;
11203;SDS011;5659;49.408;11.116;2024-01-30T04:32:41;18.17;;;8.37;;
11203;SDS011;5659;49.408;11.116;2024-01-30T04:35:07;12.87;;;7.97;;
11203;SDS011;5659;49.408;11.116;2024-01-30T04:37:33;14.60;;;8.73;;
11203;SDS011;5659;49.408;11.116;2024-01-30T04:39:59;11.53;;;8.53;;
11203;SDS011;5659;49.408;11.116;2024-01-30T04:42:25;22.37;;;8.67;;
11203;SDS011;5659;49.408;11.116;2024-01-30T04:44:51;13.90;;;9.63;;
11203;SDS011;5659;49.408;11.116;2024-01-30T04:47:17;16.70;;;8.63;;
11203;SDS011;5659;49.408;11.116;2024-01-30T04:49:43;12.37;;;8.70;;
11203;SDS011;5659;49.408;11.116;2024-01-30T04:52:09;14.50;;;9.40;;
11203;SDS011;5659;49.408;11.116;2024-01-30T04:54:35;20.03;;;9.33;;
11203;SDS011;5659;49.408;11.116;2024-01-30T04:57:01;14.37;;;8.77;;
11203;SDS011;5659;49.408;11.116;2024-01-30T04:59:27;16.80;;;9.07;;
11203;SDS011;5659;49.408;11.116;2024-01-30T05:01:54;15.27;;;8.70;;
11203;SDS011;5659;49.408;11.116;2024-01-30T05:04:20;18.83;;;9.27;;
11203;SDS011;5659;49.408;11.116;2024-01-30T05:06:47;15.60;;;9.50;;
11203;SDS011;5659;49.408;11.116;2024-01-30T05:09:13;15.30;;;9.70;;
11203;SDS011;5659;49.408;11.116;2024-01-30T05:11:40;17.53;;;9.00;;
11203;SDS011;5659;49.408;11.116;2024-01-30T05:14:07;13.50;;;9.00;;
11203;SDS011;5659;49.408;11.116;2024-01-30T05:16:33;17.63;;;9.10;;
11203;SDS011;5659;49.408;11.116;2024-01-30T05:19:00;14.73;;;9.40;;
11203;SDS011;5659;49.408;11.116;2024-01-30T05:21:26;16.70;;;9.37;;
11203;SDS011;5659;49.408;11.116;2024-01-30T05:23:52;20.63;;;10.00;;
11203;SDS011;5659;49.408;11.116;2024-01-30T05:26:18;13.83;;;8.87;;
11203;SDS011;5659;49.408;11.116;2024-01-30T05:28:44;14.57;;;9.43;;
11203;SDS011;5659;49.408;11.116;2024-01-30T05:31:10;20.50;;;9.70;;
11203;SDS011;5659;49.408;11.116;2024-01-30T05:33:36;17.90;;;9.60;;
11203;SDS011;5659;49.408;11.116;2024-01-30T05:36:02;16.10;;;9.30;;
11203;SDS011;5659;49.408;11.116;2024-01-30T05:38:28;16.17;;;9.93;;
11203;SDS011;5659;49.408;11.116;2024-01-30T05:40:55;16.20;;;10.13;;
11203;SDS011;5659;49.408;11.116;2024-01-30T05:43:23;15.50;;;9.50;;
11203;SDS011;5659;49.408;11.116;2024-01-30T05:45:48;14.57;;;9.40;;
11203;SDS011;5659;49.408;11.116;2024-01-30T05:48:15;16.23;;;9.90;;
11203;SDS011;5659;49.408;11.116;2024-01-30T05:50:41;13.27;;;10.20;;
11203;SDS011;5659;49.408;11.116;2024-01-30T05:53:07;16.27;;;9.80;;
11203;SDS011;5659;49.408;11.116;2024-01-30T05:55:33;17.00;;;11.20;;
11203;SDS011;5659;49.408;11.116;2024-01-30T05:57:59;17.97;;;11.13;;
11203;SDS011;5659;49.408;11.116;2024-01-30T06:00:25;18.70;;;11.60;;
11203;SDS011;5659;49.408;11.116;2024-01-30T06:02:51;23.73;;;12.80;;
11203;SDS011;5659;49.408;11.116;2024-01-30T06:05:17;20.20;;;14.17;;
11203;SDS011;5659;49.408;11.116;2024-01-30T06:07:43;20.20;;;13.00;;
11203;SDS011;5659;49.408;11.116;2024-01-30T06:10:09;19.97;;;13.83;;
11203;SDS011;5659;49.408;11.116;2024-01-30T06:12:35;21.63;;;13.97;;
11203;SDS011;5659;49.408;11.116;2024-01-30T06:15:01;20.90;;;14.60;;
11203;SDS011;5659;49.408;11.116;2024-01-30T06:17:28;24.67;;;15.00;;
11203;SDS011;5659;49.408;11.116;2024-01-30T06:19:54;29.07;;;15.30;;
11203;SDS011;5659;49.408;11.116;2024-01-30T06:22:20;25.97;;;15.60;;
11203;SDS011;5659;49.408;11.116;2024-01-30T06:24:46;24.33;;;16.00;;
11203;SDS011;5659;49.408;11.116;2024-01-30T06:27:15;24.87;;;16.27;;
11203;SDS011;5659;49.408;11.116;2024-01-30T06:29:42;25.73;;;16.07;;
11203;SDS011;5659;49.408;11.116;2024-01-30T06:32:09;26.57;;;17.03;;
11203;SDS011;5659;49.408;11.116;2024-01-30T06:34:35;26.90;;;17.80;;
11203;SDS011;5659;49.408;11.116;2024-01-30T06:37:01;27.77;;;17.70;;
11203;SDS011;5659;49.408;11.116;2024-01-30T06:39:27;23.67;;;16.63;;
11203;SDS011;5659;49.408;11.116;2024-01-30T06:41:53;31.50;;;18.30;;
11203;SDS011;5659;49.408;11.116;2024-01-30T06:44:19;31.37;;;17.60;;
11203;SDS011;5659;49.408;11.116;2024-01-30T06:46:45;24.73;;;17.73;;
11203;SDS011;5659;49.408;11.116;2024-01-30T06:49:11;28.63;;;17.53;;
11203;SDS011;5659;49.408;11.116;2024-01-30T06:51:37;24.13;;;17.33;;
11203;SDS011;5659;49.408;11.116;2024-01-30T06:54:03;26.00;;;17.60;;
11203;SDS011;5659;49.408;11.116;2024-01-30T06:56:29;27.67;;;17.83;;
11203;SDS011;5659;49.408;11.116;2024-01-30T06:58:55;35.33;;;20.87;;
11203;SDS011;5659;49.408;11.116;2024-01-30T07:01:27;34.27;;;20.00;;
11203;SDS011;5659;49.408;11.116;2024-01-30T07:03:54;33.60;;;20.03;;
11203;SDS011;5659;49.408;11.116;2024-01-30T07:06:19;30.37;;;20.33;;
11203;SDS011;5659;49.408;11.116;2024-01-30T07:08:45;30.33;;;20.13;;
11203;SDS011;5659;49.408;11.116;2024-01-30T07:11:18;28.80;;;19.87;;
11203;SDS011;5659;49.408;11.116;2024-01-30T07:13:44;31.90;;;19.00;;
11203;SDS011;5659;49.408;11.116;2024-01-30T07:16:10;29.80;;;19.40;;
11203;SDS011;5659;49.408;11.116;2024-01-30T07:18:36;29.97;;;18.90;;
11203;SDS011;5659;49.408;11.116;2024-01-30T07:21:02;26.17;;;17.97;;
11203;SDS011;5659;49.408;11.116;2024-01-30T07:23:27;27.80;;;19.77;;
11203;SDS011;5659;49.408;11.116;2024-01-30T07:25:55;27.53;;;19.03;;
11203;SDS011;5659;49.408;11.116;2024-01-30T07:28:21;31.03;;;19.33;;
11203;SDS011;5659;49.408;11.116;2024-01-30T07:30:47;28.30;;;18.37;;
11203;SDS011;5659;49.408;11.116;2024-01-30T07:33:13;30.20;;;19.33;;
11203;SDS011;5659;49.408;11.116;2024-01-30T07:35:39;27.17;;;17.23;;
11203;SDS011;5659;49.408;11.116;2024-01-30T07:38:05;29.70;;;18.43;;
11203;SDS011;5659;49.408;11.116;2024-01-30T07:40:31;25.37;;;17.90;;
11203;SDS011;5659;49.408;11.116;2024-01-30T07:42:58;29.27;;;18.33;;
11203;SDS011;5659;49.408;11.116;2024-01-30T07:45:24;29.37;;;19.50;;
11203;SDS011;5659;49.408;11.116;2024-01-30T07:47:52;27.53;;;18.13;;
11203;SDS011;5659;49.408;11.116;2024-01-30T07:50:18;31.30;;;18.43;;
11203;SDS011;5659;49.408;11.116;2024-01-30T07:52:44;27.77;;;16.83;;
11203;SDS011;5659;49.408;11.116;2024-01-30T07:55:10;28.70;;;16.87;;
11203;SDS011;5659;49.408;11.116;2024-01-30T07:57:40;32.87;;;17.90;;
11203;SDS011;5659;49.408;11.116;2024-01-30T08:00:07;27.97;;;16.97;;
11203;SDS011;5659;49.408;11.116;2024-01-30T08:02:34;26.83;;;17.03;;
11203;SDS011;5659;49.408;11.116;2024-01-30T08:05:00;23.47;;;16.67;;
11203;SDS011;5659;49.408;11.116;2024-01-30T08:07:25;28.60;;;17.23;;
11203;SDS011;5659;49.408;11.116;2024-01-30T08:09:54;28.10;;;16.40;;
11203;SDS011;5659;49.408;11.116;2024-01-30T08:12:20;23.53;;;16.07;;
11203;SDS011;5659;49.408;11.116;2024-01-30T08:14:46;22.13;;;16.23;;
11203;SDS011;5659;49.408;11.116;2024-01-30T08:17:12;27.20;;;16.43;;
11203;SDS011;5659;49.408;11.116;2024-01-30T08:19:38;25.30;;;15.67;;
11203;SDS011;5659;49.408;11.116;2024-01-30T08:22:04;23.30;;;16.77;;
11203;SDS011;5659;49.408;11.116;2024-01-30T08:24:30;22.37;;;14.23;;
11203;SDS011;5659;49.408;11.116;2024-01-30T08:26:56;26.10;;;15.83;;
11203;SDS011;5659;49.408;11.116;2024-01-30T08:29:23;21.17;;;15.23;;
11203;SDS011;5659;49.408;11.116;2024-01-30T08:31:49;25.53;;;15.00;;
11203;SDS011;5659;49.408;11.116;2024-01-30T08:34:15;25.63;;;15.23;;
11203;SDS011;5659;49.408;11.116;2024-01-30T08:36:41;23.57;;;15.20;;
11203;SDS011;5659;49.408;11.116;2024-01-30T08:39:07;26.67;;;14.97;;
11203;SDS011;5659;49.408;11.116;2024-01-30T08:41:33;20.53;;;14.50;;
11203;SDS011;5659;49.408;11.116;2024-01-30T08:43:59;22.47;;;14.33;;
11203;SDS011;5659;49.408;11.116;2024-01-30T08:46:25;19.83;;;14.60;;
11203;SDS011;5659;49.408;11.116;2024-01-30T08:48:51;20.23;;;13.87;;
11203;SDS011;5659;49.408;11.116;2024-01-30T08:51:18;20.13;;;14.47;;
11203;SDS011;5659;49.408;11.116;2024-01-30T08:53:44;23.63;;;14.00;;
11203;SDS011;5659;49.408;11.116;2024-01-30T08:56:10;21.97;;;14.40;;
11203;SDS011;5659;49.408;11.116;2024-01-30T08:58:36;24.90;;;14.13;;
11203;SDS011;5659;49.408;11.116;2024-01-30T09:01:01;22.43;;;14.57;;
11203;SDS011;5659;49.408;11.116;2024-01-30T09:03:30;21.97;;;14.10;;
11203;SDS011;5659;49.408;11.116;2024-01-30T09:05:56;24.47;;;14.37;;
11203;SDS011;5659;49.408;11.116;2024-01-30T09:08:22;21.80;;;13.70;;
11203;SDS011;5659;49.408;11.116;2024-01-30T09:10:48;18.57;;;13.70;;
11203;SDS011;5659;49.408;11.116;2024-01-30T09:13:15;21.40;;;13.90;;
11203;SDS011;5659;49.408;11.116;2024-01-30T09:15:41;22.17;;;13.77;;
11203;SDS011;5659;49.408;11.116;2024-01-30T09:18:07;23.63;;;12.77;;
11203;SDS011;5659;49.408;11.116;2024-01-30T09:20:33;21.50;;;13.17;;
11203;SDS011;5659;49.408;11.116;2024-01-30T09:22:59;20.07;;;13.10;;
11203;SDS011;5659;49.408;11.116;2024-01-30T09:25:25;18.27;;;12.80;;
11203;SDS011;5659;49.408;11.116;2024-01-30T09:27:51;18.13;;;12.40;;
11203;SDS011;5659;49.408;11.116;2024-01-30T09:30:17;17.27;;;12.23;;
11203;SDS011;5659;49.408;11.116;2024-01-30T09:32:43;19.57;;;12.47;;
11203;SDS011;5659;49.408;11.116;2024-01-30T09:35:09;16.67;;;12.77;;
11203;SDS011;5659;49.408;11.116;2024-01-30T09:37:35;21.50;;;12.43;;
11203;SDS011;5659;49.408;11.116;2024-01-30T09:40:01;20.07;;;12.20;;
11203;SDS011;5659;49.408;11.116;2024-01-30T09:42:34;15.37;;;11.67;;
11203;SDS011;5659;49.408;11.116;2024-01-30T09:45:04;15.90;;;11.57;;
11203;SDS011;5659;49.408;11.116;2024-01-30T09:47:40;17.20;;;11.93;;
11203;SDS011;5659;49.408;11.116;2024-01-30T09:50:09;18.23;;;11.60;;
11203;SDS011;5659;49.408;11.116;2024-01-30T09:52:36;15.60;;;11.10;;
11203;SDS011;5659;49.408;11.116;2024-01-30T09:55:02;17.87;;;11.03;;
11203;SDS011;5659;49.408;11.116;2024-01-30T09:57:28;15.40;;;10.53;;
11203;SDS011;5659;49.408;11.116;2024-01-30T09:59:54;19.30;;;11.23;;
11203;SDS011;5659;49.408;11.116;2024-01-30T10:02:21;14.37;;;9.87;;
11203;SDS011;5659;49.408;11.116;2024-01-30T10:04:51;17.55;;;9.93;;
11203;SDS011;5659;49.408;11.116;2024-01-30T10:07:17;15.63;;;10.05;;
11203;SDS011;5659;49.408;11.116;2024-01-30T10:09:43;15.70;;;10.25;;
11203;SDS011;5659;49.408;11.116;2024-01-30T10:12:09;21.13;;;11.48;;
11203;SDS011;5659;49.408;11.116;2024-01-30T10:14:39;18.58;;;10.45;;
11203;SDS011;5659;49.408;11.116;2024-01-30T10:17:06;20.13;;;10.40;;
11203;SDS011;5659;49.408;11.116;2024-01-30T10:19:32;16.13;;;9.85;;
11203;SDS011;5659;49.408;11.116;2024-01-30T10:21:59;18.52;;;10.85;;
11203;SDS011;5659;49.408;11.116;2024-01-30T10:24:25;13.82;;;9.27;;
11203;SDS011;5659;49.408;11.116;2024-01-30T10:26:55;15.43;;;9.95;;
11203;SDS011;5659;49.408;11.116;2024-01-30T10:29:21;14.60;;;9.60;;
11203;SDS011;5659;49.408;11.116;2024-01-30T10:31:57;16.33;;;11.10;;
11203;SDS011;5659;49.408;11.116;2024-01-30T10:34:23;15.40;;;10.68;;
11203;SDS011;5659;49.408;11.116;2024-01-30T10:36:49;16.05;;;10.70;;
11203;SDS011;5659;49.408;11.116;2024-01-30T10:39:16;16.50;;;9.80;;
11203;SDS011;5659;49.408;11.116;2024-01-30T10:41:43;19.45;;;10.18;;
11203;SDS011;5659;49.408;11.116;2024-01-30T10:44:10;19.55;;;10.55;;
11203;SDS011;5659;49.408;11.116;2024-01-30T10:46:37;14.47;;;9.43;;
11203;SDS011;5659;49.408;11.116;2024-01-30T10:49:04;15.87;;;10.60;;
11203;SDS011;5659;49.408;11.116;2024-01-30T10:51:31;16.90;;;10.27;;
11203;SDS011;5659;49.408;11.116;2024-01-30T10:53:57;15.40;;;10.73;;
11203;SDS011;5659;49.408;11.116;2024-01-30T10:56:24;15.40;;;9.65;;
11203;SDS011;5659;49.408;11.116;2024-01-30T10:58:51;15.15;;;9.93;;
11203;SDS011;5659;49.408;11.116;2024-01-30T11:01:20;12.93;;;9.60;;
11203;SDS011;5659;49.408;11.116;2024-01-30T11:03:48;14.48;;;9.20;;
11203;SDS011;5659;49.408;11.116;2024-01-30T11:06:14;13.80;;;9.82;;
11203;SDS011;5659;49.408;11.116;2024-01-30T11:08:43;13.15;;;9.73;;
11203;SDS011;5659;49.408;11.116;2024-01-30T11:11:09;13.32;;;9.45;;
11203;SDS011;5659;49.408;11.116;2024-01-30T11:13:35;15.70;;;10.23;;
11203;SDS011;5659;49.408;11.116;2024-01-30T11:16:05;13.30;;;9.45;;
11203;SDS011;5659;49.408;11.116;2024-01-30T11:18:31;16.92;;;10.23;;
11203;SDS011;5659;49.408;11.116;2024-01-30T11:20:58;14.80;;;9.18;;
11203;SDS011;5659;49.408;11.116;2024-01-30T11:23:26;16.52;;;9.52;;
11203;SDS011;5659;49.408;11.116;2024-01-30T11:25:53;17.27;;;10.35;;
11203;SDS011;5659;49.408;11.116;2024-01-30T11:28:19;14.80;;;9.20;;
11203;SDS011;5659;49.408;11.116;2024-01-30T11:30:46;14.80;;;10.15;;
11203;SDS011;5659;49.408;11.116;2024-01-30T11:33:16;14.70;;;9.77;;
11203;SDS011;5659;49.408;11.116;2024-01-30T11:35:52;18.38;;;10.00;;
11203;SDS011;5659;49.408;11.116;2024-01-30T11:38:18;15.85;;;9.90;;
11203;SDS011;5659;49.408;11.116;2024-01-30T11:40:44;13.57;;;9.30;;
11203;SDS011;5659;49.408;11.116;2024-01-30T11:43:11;12.18;;;9.25;;
11203;SDS011;5659;49.408;11.116;2024-01-30T11:45:38;14.20;;;9.45;;
11203;SDS011;5659;49.408;11.116;2024-01-30T11:48:04;15.80;;;9.23;;
11203;SDS011;5659;49.408;11.116;2024-01-30T11:50:31;15.63;;;9.10;;
11203;SDS011;5659;49.408;11.116;2024-01-30T11:52:57;13.40;;;8.52;;
11203;SDS011;5659;49.408;11.116;2024-01-30T11:55:23;14.10;;;9.10;;
11203;SDS011;5659;49.408;11.116;2024-01-30T11:57:49;11.90;;;8.57;;
11203;SDS011;5659;49.408;11.116;2024-01-30T12:00:16;15.98;;;9.15;;
11203;SDS011;5659;49.408;11.116;2024-01-30T12:02:43;15.90;;;8.98;;
11203;SDS011;5659;49.408;11.116;2024-01-30T12:05:09;16.92;;;8.68;;
11203;SDS011;5659;49.408;11.116;2024-01-30T12:07:36;16.38;;;9.48;;
11203;SDS011;5659;49.408;11.116;2024-01-30T12:10:02;13.18;;;9.00;;
11203;SDS011;5659;49.408;11.116;2024-01-30T12:12:28;14.65;;;9.13;;
11203;SDS011;5659;49.408;11.116;2024-01-30T12:14:55;14.35;;;8.95;;
11203;SDS011;5659;49.408;11.116;2024-01-30T12:17:28;12.05;;;8.70;;
11203;SDS011;5659;49.408;11.116;2024-01-30T12:20:08;12.82;;;9.00;;
11203;SDS011;5659;49.408;11.116;2024-01-30T12:22:38;14.23;;;9.50;;
11203;SDS011;5659;49.408;11.116;2024-01-30T12:25:05;13.10;;;8.50;;
11203;SDS011;5659;49.408;11.116;2024-01-30T12:27:31;15.50;;;8.20;;
11203;SDS011;5659;49.408;11.116;2024-01-30T12:29:57;16.30;;;8.55;;
11203;SDS011;5659;49.408;11.116;2024-01-30T12:32:23;12.98;;;8.43;;
11203;SDS011;5659;49.408;11.116;2024-01-30T12:34:49;16.00;;;8.57;;
11203;SDS011;5659;49.408;11.116;2024-01-30T12:37:15;11.80;;;8.75;;
11203;SDS011;5659;49.408;11.116;2024-01-30T12:39:47;11.82;;;8.85;;
11203;SDS011;5659;49.408;11.116;2024-01-30T12:42:13;16.40;;;8.50;;
11203;SDS011;5659;49.408;11.116;2024-01-30T12:44:39;11.68;;;8.77;;
11203;SDS011;5659;49.408;11.116;2024-01-30T12:47:05;11.85;;;8.75;;
11203;SDS011;5659;49.408;11.116;2024-01-30T12:49:31;15.73;;;9.23;;
11203;SDS011;5659;49.408;11.116;2024-01-30T12:51:58;17.83;;;9.65;;
11203;SDS011;5659;49.408;11.116;2024-01-30T12:54:24;14.30;;;9.30;;
11203;SDS011;5659;49.408;11.116;2024-01-30T12:56:50;17.42;;;9.02;;
11203;SDS011;5659;49.408;11.116;2024-01-30T12:59:16;13.98;;;9.73;;
11203;SDS011;5659;49.408;11.116;2024-01-30T13:01:42;13.77;;;9.10;;
11203;SDS011;5659;49.408;11.116;2024-01-30T13:04:08;13.75;;;9.10;;
11203;SDS011;5659;49.408;11.116;2024-01-30T13:06:34;15.73;;;9.43;;
11203;SDS011;5659;49.408;11.116;2024-01-30T13:09:00;17.52;;;9.73;;
11203;SDS011;5659;49.408;11.116;2024-01-30T13:11:26;12.57;;;8.68;;
11203;SDS011;5659;49.408;11.116;2024-01-30T13:13:52;14.48;;;8.93;;
11203;SDS011;5659;49.408;11.116;2024-01-30T13:16:18;12.70;;;8.77;;
11203;SDS011;5659;49.408;11.116;2024-01-30T13:18:44;13.85;;;9.45;;
11203;SDS011;5659;49.408;11.116;2024-01-30T13:21:10;14.32;;;9.48;;
11203;SDS011;5659;49.408;11.116;2024-01-30T13:23:36;14.68;;;9.80;;
11203;SDS011;5659;49.408;11.116;2024-01-30T13:26:02;14.98;;;8.93;;
11203;SDS011;5659;49.408;11.116;2024-01-30T13:28:28;15.65;;;9.85;;
11203;SDS011;5659;49.408;11.116;2024-01-30T13:30:54;12.65;;;9.27;;
11203;SDS011;5659;49.408;11.116;2024-01-30T13:33:19;17.08;;;9.57;;
11203;SDS011;5659;49.408;11.116;2024-01-30T13:35:45;13.18;;;8.98;;
11203;SDS011;5659;49.408;11.116;2024-01-30T13:38:11;14.55;;;9.93;;
11203;SDS011;5659;49.408;11.116;2024-01-30T13:40:38;10.02;;;8.45;;
11203;SDS011;5659;49.408;11.116;2024-01-30T13:43:04;11.10;;;8.30;;
11203;SDS011;5659;49.408;11.116;2024-01-30T13:45:30;13.63;;;8.50;;
11203;SDS011;5659;49.408;11.116;2024-01-30T13:47:56;11.38;;;8.02;;
11203;SDS011;5659;49.408;11.116;2024-01-30T13:50:22;12.77;;;8.52;;
11203;SDS011;5659;49.408;11.116;2024-01-30T13:52:48;14.00;;;8.63;;
11203;SDS011;5659;49.408;11.116;2024-01-30T13:55:14;12.38;;;9.05;;
11203;SDS011;5659;49.408;11.116;2024-01-30T13:57:40;17.13;;;10.70;;
11203;SDS011;5659;49.408;11.116;2024-01-30T14:00:06;11.60;;;8.68;;
11203;SDS011;5659;49.408;11.116;2024-01-30T14:02:32;13.32;;;8.60;;
11203;SDS011;5659;49.408;11.116;2024-01-30T14:04:59;11.77;;;7.80;;
11203;SDS011;5659;49.408;11.116;2024-01-30T14:07:25;14.23;;;7.93;;
11203;SDS011;5659;49.408;11.116;2024-01-30T14:09:51;12.02;;;8.05;;
11203;SDS011;5659;49.408;11.116;2024-01-30T14:12:17;12.35;;;7.80;;
11203;SDS011;5659;49.408;11.116;2024-01-30T14:14:43;14.05;;;7.97;;
11203;SDS011;5659;49.408;11.116;2024-01-30T14:17:09;14.32;;;8.60;;
11203;SDS011;5659;49.408;11.116;2024-01-30T14:19:35;13.57;;;9.15;;
11203;SDS011;5659;49.408;11.116;2024-01-30T14:22:01;15.38;;;9.65;;
11203;SDS011;5659;49.408;11.116;2024-01-30T14:24:27;11.55;;;8.20;;